Barrow, AK

4:40 AM AKDT on August 29, 2015 (GMT -0800)
Wiley Post-Will Rogers Memorial | | Change Station
CLOSE
Current Station
Airport
Location: Barrow,
Elevation: 43 ft
Nearby Weather Stations

Elev 43 ft 71.28 °N, 156.79 °W | Updated 47 minutes ago

Light Snow
Light Snow
34 °F
Feels Like 25 °F
N
13
Wind Variable Wind from West

Today
High -- | Low -- °F
--% Chance of Precip.
Yesterday
High -- | Low -- °F
Precip. -- in
6:19 AM 10:32 PM
Full, 100% visible
Pressure 29.32 in
Visibility 7.0 miles
Clouds Mostly Cloudy 1200 ft
Overcast 3400 ft
Windchill 25 °F
Dew Point 32 °F
Humidity 92%
Rainfall 0.02 in
Snow Depth Not available.
UV 0 out of 12
Pollen Not available.
Air Quality Not available.
Flu Activity Not available.
METAR PABR 291153Z 28011KT 7SM -SN BKN012 OVC034 01/00 A2931 RMK SLP927 SNE1055B29 P0000 60002 70014 T00110000 10017 20006 57002 VIA AUTODIAL
Pressure 29.32 in
Visibility 7.0 miles
Clouds Mostly Cloudy 1200 ft
Overcast 3400 ft
Windchill 25 °F
Dew Point 32 °F
Humidity 92%
Rainfall 0.02 in
Snow Depth Not available.
UV 0 out of 12
Pollen Not available.
Air Quality Not available.
Flu Activity Not available.
METAR PABR 291153Z 28011KT 7SM -SN BKN012 OVC034 01/00 A2931 RMK SLP927 SNE1055B29 P0000 60002 70014 T00110000 10017 20006 57002 VIA AUTODIAL

10-Day Weather Forecast

×

Almanac

Astronomy

Aug. 29, 2015 Rise Set
Actual Time
Civil Twilight
Nautical Twilight
Astronomical Twilight
Moon
Length of Visible Light
Length of Day
Tomorrow will be .
, % of the Moon is Illuminated

Today's Extremes

State Highs State Lows

Community

WunderPhotos

Upload Photos

1,850,677 photos uploaded!

WunderBlogs® & News

Nearby

Air Quality

  Air Quality AQ Index Pollutant
Not available.

Snow Depth

Station Depth Elevation

Earthquake Activity

City Distance Mag. Time & Date
Minimum magnitude displayed is 2.5.

Coastal Water Temperatures

Place Temperature

Stations

Nearby Weather Stations

Station Location Temp. Windchill Dew Point Humidity Wind Precip. Elev Updated Type